Time;durP1;ratioP1;P1;durP2;ratioP2;P2;SDS_P1;SDS_P2;PMS_P1;PMS_P2;Temp;Humidity;BMP_temperature;BMP_pressure;BME280_temperature;BME280_humidity;BME280_pressure;Samples;Min_cycle;Max_cycle;Signal;HPM_P1;HPM_P2
2022/06/28 00:01:03;;;;;;;11.25;10.05;;;;;;;23.60;59.60;98595.67;1653584;86;25728;-58
2022/06/28 00:03:30;;;;;;;13.62;10.08;;;;;;;23.64;59.31;98599.88;1653541;86;25790;-58
2022/06/28 00:05:56;;;;;;;11.48;10.28;;;;;;;23.66;59.90;98601.67;1653399;86;27571;-58
2022/06/28 00:08:22;;;;;;;14.55;10.50;;;;;;;23.63;59.76;98603.26;1653405;86;25634;-58
2022/06/28 00:10:49;;;;;;;13.65;11.38;;;;;;;23.60;59.85;98601.89;1653519;86;25746;-58
2022/06/28 00:13:15;;;;;;;12.10;10.65;;;;;;;23.55;60.08;98601.70;1653533;86;25884;-58
2022/06/28 00:18:25;;;;;;;14.80;10.98;;;;;;;23.41;60.75;98604.73;1653202;86;25702;-58
2022/06/28 00:20:51;;;;;;;13.95;10.78;;;;;;;23.30;61.74;98602.52;1653321;86;25752;-57
2022/06/28 00:23:17;;;;;;;13.60;10.80;;;;;;;23.19;61.59;98600.54;1653125;86;25770;-58
2022/06/28 00:25:42;;;;;;;13.88;12.35;;;;;;;23.09;61.96;98597.16;1650951;86;25829;-58
2022/06/28 00:28:09;;;;;;;13.93;12.50;;;;;;;23.01;62.36;98602.55;1622770;88;25681;-57
2022/06/28 00:30:35;;;;;;;15.30;12.73;;;;;;;22.91;62.69;98597.95;1649870;87;28283;-58
2022/06/28 00:33:01;;;;;;;15.35;12.73;;;;;;;22.89;62.44;98601.77;1649841;86;26031;-57
2022/06/28 00:35:27;;;;;;;15.20;12.28;;;;;;;22.86;62.65;98603.16;1649106;87;25666;-57
2022/06/28 00:37:53;;;;;;;15.03;11.80;;;;;;;22.80;62.80;98598.57;1649328;87;25748;-58
2022/06/28 00:40:20;;;;;;;14.40;11.65;;;;;;;22.80;63.25;98607.73;1649145;87;25650;-58
2022/06/28 00:42:47;;;;;;;16.07;12.63;;;;;;;22.83;62.89;98595.57;1649163;87;27425;-58
2022/06/28 00:45:13;;;;;;;16.23;12.58;;;;;;;22.85;62.73;98604.36;1649069;87;25467;-57
2022/06/28 00:47:40;;;;;;;15.53;12.37;;;;;;;22.81;63.45;98598.77;1648960;87;25537;-57
2022/06/28 00:50:18;;;;;;;14.45;12.30;;;;;;;22.75;63.47;98609.55;1648989;87;25825;-58
2022/06/28 00:53:03;;;;;;;14.70;12.25;;;;;;;22.75;63.34;98612.34;1648912;87;25711;-57
2022/06/28 00:55:29;;;;;;;13.25;11.45;;;;;;;22.73;63.59;98611.11;1649088;87;29220;-58
2022/06/28 00:57:55;;;;;;;14.30;11.63;;;;;;;22.72;63.47;98618.72;1649022;87;25904;-57
2022/06/28 01:00:22;;;;;;;13.13;11.78;;;;;;;22.69;63.45;98613.30;1648964;87;25648;-58
2022/06/28 01:02:49;;;;;;;15.58;11.95;;;;;;;22.74;63.53;98621.11;1648776;87;27944;-57
2022/06/28 01:05:15;;;;;;;14.58;11.50;;;;;;;22.75;63.66;98631.89;1649228;87;25722;-57
2022/06/28 01:07:41;;;;;;;13.08;11.35;;;;;;;22.67;63.76;98637.25;1649106;87;27579;-57
2022/06/28 01:10:10;;;;;;;18.27;12.33;;;;;;;22.63;63.57;98636.45;1649046;87;25747;-57
2022/06/28 01:12:36;;;;;;;14.20;12.70;;;;;;;22.56;63.87;98639.41;1648948;87;25484;-57
2022/06/28 01:15:03;;;;;;;13.45;12.03;;;;;;;22.50;64.07;98640.98;1649342;87;25716;-58
2022/06/28 01:17:29;;;;;;;15.60;11.55;;;;;;;22.46;64.17;98642.98;1649221;87;25549;-58
2022/06/28 01:19:55;;;;;;;13.68;11.40;;;;;;;22.42;64.34;98644.36;1649161;86;28477;-57
2022/06/28 01:22:22;;;;;;;15.25;11.45;;;;;;;22.40;64.51;98648.75;1649235;87;25649;-57
2022/06/28 01:24:49;;;;;;;13.10;11.70;;;;;;;22.44;64.45;98646.75;1648745;87;25703;-58
2022/06/28 01:27:16;;;;;;;14.30;12.50;;;;;;;22.48;64.42;98655.16;1649169;87;26715;-58
2022/06/28 01:29:42;;;;;;;12.68;11.38;;;;;;;22.50;64.40;98652.16;1649139;87;25599;-58
2022/06/28 01:32:09;;;;;;;12.98;11.25;;;;;;;22.53;64.38;98653.34;1648949;87;28430;-57
2022/06/28 01:34:35;;;;;;;14.05;11.12;;;;;;;22.47;64.54;98651.55;1649205;87;25699;-58
2022/06/28 01:37:02;;;;;;;13.98;11.30;;;;;;;22.42;64.71;98653.31;1649117;87;25541;-58
2022/06/28 01:39:28;;;;;;;13.78;11.63;;;;;;;22.40;64.88;98643.94;1649015;87;26463;-57
2022/06/28 01:41:54;;;;;;;13.62;11.15;;;;;;;22.42;64.89;98649.13;1649314;87;25485;-57
2022/06/28 01:44:20;;;;;;;12.68;11.48;;;;;;;22.46;64.94;98651.94;1649110;87;27294;-58
2022/06/28 01:46:46;;;;;;;13.35;11.95;;;;;;;22.50;64.94;98653.55;1649017;87;25686;-57
2022/06/28 01:49:12;;;;;;;12.35;11.05;;;;;;;22.47;65.36;98656.33;1649019;87;25733;-57
2022/06/28 01:51:38;;;;;;;13.65;11.88;;;;;;;22.41;65.58;98658.13;1648858;87;26436;-58
2022/06/28 01:54:04;;;;;;;13.05;11.55;;;;;;;22.37;65.51;98661.51;1649210;87;25737;-58
2022/06/28 01:56:31;;;;;;;12.40;10.88;;;;;;;22.34;65.60;98653.92;1649088;87;28403;-57
2022/06/28 01:58:58;;;;;;;15.60;11.73;;;;;;;22.36;65.47;98657.09;1648905;87;25942;-57
2022/06/28 02:01:23;;;;;;;12.82;11.20;;;;;;;22.42;65.62;98658.90;1649179;87;25634;-57
2022/06/28 02:03:51;;;;;;;13.13;11.38;;;;;;;22.43;65.50;98653.55;1648767;87;25732;-57
2022/06/28 02:06:18;;;;;;;12.25;10.95;;;;;;;22.49;65.64;98653.95;1648948;87;25533;-57
2022/06/28 02:08:44;;;;;;;12.18;10.95;;;;;;;22.48;65.48;98653.75;1649132;87;28277;-57
2022/06/28 02:11:10;;;;;;;11.70;10.48;;;;;;;22.52;65.37;98657.34;1649154;87;25546;-58
2022/06/28 02:13:36;;;;;;;12.33;10.50;;;;;;;22.59;65.23;98648.23;1649180;87;25706;-58
2022/06/28 02:16:03;;;;;;;13.55;11.40;;;;;;;22.55;65.20;98651.78;1649101;87;26309;-57
2022/06/28 02:18:33;;;;;;;14.18;11.10;;;;;;;22.53;65.36;98658.34;1649175;87;25690;-57
2022/06/28 02:20:59;;;;;;;13.98;11.33;;;;;;;22.51;65.62;98655.75;1648914;87;27488;-58
2022/06/28 02:23:25;;;;;;;13.70;11.18;;;;;;;22.38;65.84;98655.31;1649148;87;25498;-57
2022/06/28 02:25:51;;;;;;;16.37;11.15;;;;;;;22.34;65.88;98661.48;1648405;86;25644;-58
2022/06/28 02:28:17;;;;;;;12.53;11.15;;;;;;;22.33;65.88;98664.09;1620675;88;25965;-57
2022/06/28 02:30:43;;;;;;;14.63;11.65;;;;;;;22.28;65.93;98657.67;1646884;87;25500;-58
2022/06/28 02:33:09;;;;;;;14.55;12.47;;;;;;;22.17;66.17;98659.02;1660854;86;28172;-57
2022/06/28 02:41:04;;;;;;;16.40;12.75;;;;;;;22.04;66.96;98664.75;1618795;88;25505;-57
2022/06/28 02:43:30;;;;;;;15.50;13.43;;;;;;;21.94;66.98;98660.73;1660826;86;25726;-57
2022/06/28 02:45:55;;;;;;;16.70;13.32;;;;;;;21.92;67.08;98665.90;1619140;88;27479;-57
2022/06/28 02:48:21;;;;;;;14.13;12.73;;;;;;;21.98;66.98;98665.73;1660600;86;25709;-57
2022/06/28 02:50:47;;;;;;;14.43;12.93;;;;;;;21.97;66.88;98659.15;1619201;88;25484;-57
2022/06/28 02:53:13;;;;;;;14.80;13.08;;;;;;;22.02;66.70;98654.59;1660820;86;26555;-57
2022/06/28 02:55:39;;;;;;;15.55;12.98;;;;;;;22.12;66.67;98652.44;1619509;88;25715;-57
2022/06/28 02:58:05;;;;;;;16.00;12.80;;;;;;;22.25;66.45;98655.66;1660791;86;27479;-57
2022/06/28 03:00:31;;;;;;;16.07;12.90;;;;;;;22.29;66.29;98651.50;1618968;88;25627;-57
2022/06/28 03:02:57;;;;;;;14.23;12.50;;;;;;;22.33;66.27;98650.91;1660546;86;25680;-56
2022/06/28 03:05:24;;;;;;;13.90;11.97;;;;;;;22.30;66.21;98645.52;1619094;88;26484;-57
2022/06/28 03:07:50;;;;;;;13.50;11.57;;;;;;;22.31;66.17;98651.92;1660850;86;25739;-57
2022/06/28 03:10:22;;;;;;;14.63;12.07;;;;;;;22.34;65.93;98651.72;1618781;88;28654;-57
2022/06/28 03:12:46;;;;;;;16.27;12.35;;;;;;;22.38;65.82;98646.94;1660347;86;25706;-58
2022/06/28 03:15:13;;;;;;;15.03;12.10;;;;;;;22.41;65.93;98648.34;1619227;88;25952;-57
2022/06/28 03:17:41;;;;;;;15.08;12.55;;;;;;;22.42;66.01;98638.77;1660688;86;25827;-57
2022/06/28 03:20:09;;;;;;;16.32;12.18;;;;;;;22.46;65.90;98645.77;1619162;88;25717;-57
2022/06/28 03:22:35;;;;;;;14.28;11.50;;;;;;;22.53;65.69;98643.58;1660924;86;27457;-58
2022/06/28 03:25:01;;;;;;;21.07;12.33;;;;;;;22.66;65.58;98645.44;1619174;88;25630;-57
2022/06/28 03:27:27;;;;;;;15.53;12.00;;;;;;;22.80;65.65;98653.05;1685778;84;25517;-58
2022/06/28 03:29:53;;;;;;;14.30;12.15;;;;;;;22.91;65.62;98658.64;1689116;85;26583;-57
2022/06/28 03:32:20;;;;;;;12.75;11.45;;;;;;;22.99;65.58;98658.02;1689057;85;25489;-57
2022/06/28 03:34:46;;;;;;;16.30;12.68;;;;;;;23.05;65.55;98661.44;1689156;85;27481;-56
2022/06/28 03:37:12;;;;;;;16.62;12.45;;;;;;;23.21;65.26;98663.03;1689263;85;25602;-57
2022/06/28 03:39:38;;;;;;;14.90;12.78;;;;;;;23.35;64.93;98662.23;1688959;85;25753;-57
2022/06/28 03:42:06;;;;;;;15.93;12.43;;;;;;;23.41;64.99;98664.85;1689244;85;25787;-57
2022/06/28 03:44:32;;;;;;;18.45;12.78;;;;;;;23.41;65.04;98663.45;1689220;85;25656;-57
2022/06/28 03:46:58;;;;;;;17.30;12.73;;;;;;;23.37;65.09;98656.23;1689226;85;27434;-57
2022/06/28 03:49:24;;;;;;;16.45;12.82;;;;;;;23.39;65.24;98656.64;1689290;85;25901;-57
2022/06/28 03:51:50;;;;;;;17.25;12.75;;;;;;;23.39;65.45;98657.45;1689255;85;25513;-56
2022/06/28 03:54:16;;;;;;;18.25;13.20;;;;;;;23.35;65.17;98649.65;1689173;84;25707;-56
2022/06/28 03:56:42;;;;;;;21.97;12.65;;;;;;;23.48;65.17;98649.23;1689307;84;25674;-57
2022/06/28 03:59:08;;;;;;;19.23;12.58;;;;;;;23.47;64.55;98652.66;1689191;84;27552;-56
2022/06/28 04:01:34;;;;;;;15.53;12.93;;;;;;;23.49;64.51;98649.45;1689254;85;25607;-58
2022/06/28 04:03:59;;;;;;;17.75;12.15;;;;;;;23.56;64.42;98653.04;1689261;85;25637;-56
2022/06/28 04:06:25;;;;;;;21.05;11.60;;;;;;;23.66;64.42;98662.59;1689423;84;25729;-57
2022/06/28 04:08:52;;;;;;;14.93;12.13;;;;;;;23.71;64.82;98666.20;1689251;85;25762;-57
2022/06/28 04:11:18;;;;;;;14.90;13.00;;;;;;;23.71;65.23;98674.59;1689141;84;27428;-58
2022/06/28 04:13:51;;;;;;;15.63;12.68;;;;;;;23.71;64.61;98673.19;1688927;85;25679;-58
2022/06/28 04:16:19;;;;;;;16.15;12.88;;;;;;;23.72;65.16;98671.39;1689195;84;25715;-58
2022/06/28 04:18:46;;;;;;;15.50;12.55;;;;;;;23.73;64.92;98670.77;1689269;85;25940;-57
2022/06/28 04:21:14;;;;;;;13.40;10.93;;;;;;;23.76;64.66;98676.96;1689127;85;25722;-58
2022/06/28 04:23:42;;;;;;;10.53;7.05;;;;;;;23.87;64.08;98681.94;1663701;85;28303;-59
2022/06/28 04:26:09;;;;;;;7.83;6.80;;;;;;;24.01;61.37;98678.27;1688706;85;25894;-59
2022/06/28 04:28:35;;;;;;;8.43;6.80;;;;;;;24.14;61.14;98682.06;1673231;85;25456;-58
2022/06/28 04:31:03;;;;;;;7.28;6.50;;;;;;;24.26;60.85;98687.84;1687424;85;25742;-59
2022/06/28 04:33:29;;;;;;;9.20;8.30;;;;;;;24.33;60.09;98679.98;1673142;85;25476;-59
2022/06/28 04:35:56;;;;;;;15.58;10.60;;;;;;;24.43;60.16;98679.12;1687490;85;27071;-58
2022/06/28 04:38:23;;;;;;;14.43;10.82;;;;;;;24.38;61.16;98676.78;1685346;84;26016;-59
2022/06/28 04:40:49;;;;;;;14.05;8.63;;;;;;;24.33;61.48;98676.59;1685192;84;25492;-59
2022/06/28 04:43:16;;;;;;;11.08;8.78;;;;;;;24.37;59.57;98673.17;1673110;85;25925;-59
2022/06/28 04:45:42;;;;;;;9.55;8.38;;;;;;;24.43;59.75;98679.12;1687268;85;25723;-59
2022/06/28 04:48:09;;;;;;;12.47;8.60;;;;;;;24.50;59.30;98669.91;1673243;85;28209;-59
2022/06/28 04:50:34;;;;;;;13.75;9.55;;;;;;;24.62;59.30;98664.42;1687439;85;25453;-59
2022/06/28 04:53:01;;;;;;;11.60;9.48;;;;;;;24.74;59.26;98670.15;1673158;85;25514;-59
2022/06/28 04:55:27;;;;;;;12.65;10.05;;;;;;;24.90;58.47;98668.28;1687219;85;25746;-59
2022/06/28 04:57:53;;;;;;;13.55;10.55;;;;;;;25.09;59.43;98658.52;1644377;87;25446;-60
2022/06/28 05:00:20;;;;;;;11.45;8.23;;;;;;;25.30;58.39;98655.34;1687390;85;27424;-59
2022/06/28 05:02:46;;;;;;;10.88;7.80;;;;;;;25.51;56.71;98653.53;1649404;85;25646;-59
2022/06/28 05:05:12;;;;;;;8.88;6.78;;;;;;;25.73;56.66;98649.91;1687483;85;25754;-59
2022/06/28 05:07:38;;;;;;;8.10;6.20;;;;;;;26.00;54.86;98643.61;1673220;85;25754;-59
2022/06/28 05:10:07;;;;;;;9.98;6.30;;;;;;;26.21;52.42;98644.54;1687560;85;25448;-60
2022/06/28 05:12:33;;;;;;;8.35;6.25;;;;;;;26.36;53.63;98647.97;1673195;85;27459;-59
2022/06/28 05:14:59;;;;;;;8.33;5.62;;;;;;;26.53;53.11;98643.33;1687189;85;25961;-60
2022/06/28 05:17:25;;;;;;;7.00;5.80;;;;;;;26.77;51.96;98644.77;1672926;85;25818;-60
2022/06/28 05:19:52;;;;;;;7.75;5.78;;;;;;;26.98;52.95;98645.67;1687042;85;25887;-61
2022/06/28 05:22:18;;;;;;;9.35;6.50;;;;;;;27.24;52.25;98655.11;1672990;85;25422;-61
2022/06/28 05:24:44;;;;;;;8.68;5.37;;;;;;;27.53;53.14;98669.47;1687372;85;27495;-61
2022/06/28 05:27:10;;;;;;;6.00;5.40;;;;;;;27.73;51.50;98679.19;1675502;85;25463;-59
2022/06/28 05:29:36;;;;;;;8.63;5.72;;;;;;;27.97;50.71;98674.30;1692415;84;25670;-59
2022/06/28 05:32:04;;;;;;;10.78;5.15;;;;;;;28.17;50.59;98670.07;1677750;85;25650;-60
2022/06/28 05:34:31;;;;;;;7.17;4.90;;;;;;;28.31;49.96;98655.52;1692363;84;25613;-60
2022/06/28 05:36:58;;;;;;;6.40;4.67;;;;;;;28.39;49.15;98654.75;1677743;85;27419;-60
2022/06/28 05:39:24;;;;;;;8.10;5.15;;;;;;;28.60;48.50;98664.75;1692290;84;25698;-60
2022/06/28 05:41:51;;;;;;;9.95;5.05;;;;;;;28.64;49.16;98674.55;1678089;85;25452;-60
2022/06/28 05:44:18;;;;;;;8.15;5.58;;;;;;;28.70;49.98;98674.20;1692215;84;25828;-59
2022/06/28 05:46:45;;;;;;;6.95;5.28;;;;;;;28.84;50.07;98673.69;1677951;85;25629;-60
2022/06/28 05:49:11;;;;;;;10.70;5.87;;;;;;;28.89;49.68;98661.26;1692043;84;27494;-60
2022/06/28 05:51:38;;;;;;;9.30;5.78;;;;;;;28.83;49.11;98661.61;1677950;85;25451;-60
2022/06/28 05:54:04;;;;;;;7.65;5.10;;;;;;;28.83;48.83;98662.21;1692032;84;25770;-60
2022/06/28 05:56:32;;;;;;;8.40;5.47;;;;;;;28.94;49.12;98658.56;1677884;85;25802;-60
2022/06/28 05:58:59;;;;;;;6.70;5.28;;;;;;;29.07;48.32;98661.45;1692518;84;25488;-60
2022/06/28 06:01:25;;;;;;;8.00;5.75;;;;;;;29.16;46.81;98656.62;1677742;85;27424;-60
2022/06/28 06:03:53;;;;;;;7.83;5.72;;;;;;;29.29;47.33;98656.08;1692063;84;25682;-60
2022/06/28 06:06:22;;;;;;;9.38;5.28;;;;;;;29.29;46.93;98655.27;1678066;85;25742;-60
2022/06/28 06:08:49;;;;;;;9.53;5.22;;;;;;;29.46;47.39;98653.22;1691979;84;25499;-60
2022/06/28 06:11:16;;;;;;;10.70;5.65;;;;;;;29.63;46.48;98659.66;1677914;85;25585;-60
2022/06/28 06:13:43;;;;;;;6.67;5.08;;;;;;;29.89;45.78;98662.58;1692248;84;27597;-60
2022/06/28 06:16:09;;;;;;;8.68;6.17;;;;;;;30.13;45.78;98668.59;1677896;85;25472;-60
2022/06/28 06:18:35;;;;;;;7.25;5.28;;;;;;;30.38;44.59;98676.34;1692321;84;25606;-59
2022/06/28 06:21:02;;;;;;;6.78;5.10;;;;;;;30.52;45.52;98680.77;1677784;85;26205;-61
2022/06/28 06:23:29;;;;;;;7.55;5.60;;;;;;;30.72;45.01;98669.86;1692283;84;25507;-61
2022/06/28 06:25:55;;;;;;;9.08;5.80;;;;;;;30.74;44.56;98665.94;1677909;85;27555;-60
2022/06/28 06:28:22;;;;;;;6.78;5.45;;;;;;;30.87;44.78;98670.22;1669673;84;25657;-61
2022/06/28 06:30:49;;;;;;;8.23;5.60;;;;;;;30.75;43.79;98675.22;1623800;88;25602;-58
2022/06/28 06:33:15;;;;;;;9.28;5.87;;;;;;;30.58;44.35;98676.75;1665544;86;25734;-59
2022/06/28 06:35:42;;;;;;;7.33;5.10;;;;;;;30.60;44.18;98684.78;1651942;86;25481;-59
2022/06/28 06:38:09;;;;;;;6.40;5.20;;;;;;;30.59;44.57;98691.69;1665708;86;27262;-58
2022/06/28 06:40:36;;;;;;;7.60;5.53;;;;;;;30.51;44.29;98698.19;1623873;88;25797;-58
2022/06/28 06:43:03;;;;;;;7.47;5.60;;;;;;;30.57;44.81;98704.06;1665745;86;25479;-58
2022/06/28 06:45:31;;;;;;;6.85;5.53;;;;;;;30.61;44.49;98714.64;1651874;86;25718;-57
2022/06/28 06:47:57;;;;;;;7.62;5.47;;;;;;;30.84;45.05;98714.17;1665646;86;25637;-59
2022/06/28 06:50:24;;;;;;;8.85;5.47;;;;;;;30.97;43.69;98714.18;1610799;88;26862;-58
2022/06/28 06:52:51;;;;;;;6.87;5.45;;;;;;;31.01;44.44;98714.23;1625107;88;25721;-59
2022/06/28 06:55:17;;;;;;;6.42;5.72;;;;;;;30.96;43.80;98724.70;1625132;88;25767;-59
2022/06/28 06:57:45;;;;;;;10.68;6.37;;;;;;;31.10;44.69;98716.38;1622898;88;25729;-58
2022/06/28 07:00:13;;;;;;;7.15;5.70;;;;;;;31.28;45.01;98720.03;1622970;88;25801;-59
2022/06/28 07:02:42;;;;;;;6.95;5.55;;;;;;;31.40;44.72;98721.27;1623223;88;27506;-58
2022/06/28 07:05:11;;;;;;;6.87;5.40;;;;;;;31.50;43.86;98720.75;1623055;88;25768;-59
2022/06/28 07:07:37;;;;;;;8.03;5.53;;;;;;;31.47;44.02;98716.00;1623437;88;25460;-58
2022/06/28 07:10:06;;;;;;;5.97;5.47;;;;;;;31.38;43.23;98713.87;1622725;88;25770;-58
2022/06/28 07:12:32;;;;;;;7.00;5.80;;;;;;;31.41;43.52;98712.97;1623127;88;25750;-58
2022/06/28 07:14:59;;;;;;;7.53;6.83;;;;;;;31.37;42.95;98712.92;1622704;88;27494;-59
2022/06/28 07:17:26;;;;;;;7.80;7.00;;;;;;;31.14;43.34;98707.13;1622957;88;25791;-59
2022/06/28 07:19:52;;;;;;;8.83;7.15;;;;;;;31.07;43.41;98705.96;1622900;88;25439;-58
2022/06/28 07:22:19;;;;;;;7.42;6.60;;;;;;;30.82;43.65;98706.13;1622892;88;25817;-59
2022/06/28 07:24:46;;;;;;;7.22;6.37;;;;;;;30.67;44.24;98702.33;1622993;88;25600;-58
2022/06/28 07:27:13;;;;;;;8.03;7.17;;;;;;;30.60;44.69;98691.86;1621716;87;27359;-58
2022/06/28 07:29:39;;;;;;;9.13;6.70;;;;;;;30.48;44.75;98701.27;1617862;88;25489;-58
2022/06/28 07:32:08;;;;;;;9.08;6.80;;;;;;;30.48;45.46;98692.79;1617295;88;25717;-58
2022/06/28 07:34:34;;;;;;;8.88;7.28;;;;;;;30.51;45.26;98695.36;1619392;85;25742;-58
2022/06/28 07:37:01;;;;;;;8.93;7.05;;;;;;;30.53;45.75;98696.48;1630093;87;25749;-59
2022/06/28 07:39:28;;;;;;;7.92;7.12;;;;;;;30.61;45.62;98704.13;1633638;87;27470;-58
2022/06/28 07:41:55;;;;;;;7.92;7.17;;;;;;;30.63;45.56;98707.31;1631469;87;25751;-59
2022/06/28 07:44:21;;;;;;;9.70;6.90;;;;;;;30.66;47.11;98724.79;1631580;87;25802;-58
2022/06/28 07:46:47;;;;;;;7.97;7.28;;;;;;;30.61;46.80;98725.34;1631461;87;25863;-59
2022/06/28 07:49:14;;;;;;;8.75;7.95;;;;;;;30.48;47.59;98730.19;1631333;87;25758;-59
2022/06/28 07:54:25;;;;;;;9.50;8.50;;;;;;;30.34;47.83;98747.73;1632184;87;25652;-59
2022/06/28 07:56:52;;;;;;;9.23;8.18;;;;;;;30.38;48.33;98756.90;1632201;87;25722;-59
2022/06/28 07:59:18;;;;;;;10.85;7.92;;;;;;;30.59;49.08;98768.81;1632396;87;25907;-59
2022/06/28 08:01:46;;;;;;;8.75;7.95;;;;;;;30.75;48.75;98772.19;1631698;86;25547;-59
2022/06/28 08:04:14;;;;;;;11.10;8.25;;;;;;;30.83;47.72;98782.70;1638608;86;27427;-60
2022/06/28 08:06:43;;;;;;;10.25;8.10;;;;;;;30.97;48.26;98777.20;1651019;86;25729;-59
2022/06/28 08:09:09;;;;;;;9.80;7.83;;;;;;;31.07;48.39;98778.12;1641075;87;25782;-60
2022/06/28 08:11:36;;;;;;;9.28;8.38;;;;;;;31.32;48.17;98768.66;1641731;87;26159;-59
2022/06/28 08:14:03;;;;;;;10.32;8.10;;;;;;;31.86;47.40;98771.75;1642255;87;25540;-60
2022/06/28 08:16:30;;;;;;;9.20;8.40;;;;;;;32.11;45.93;98777.97;1642309;87;27476;-59
2022/06/28 08:18:57;;;;;;;8.80;7.87;;;;;;;32.11;44.91;98775.75;1642105;87;25445;-59
2022/06/28 08:21:24;;;;;;;9.85;7.90;;;;;;;32.12;45.20;98776.70;1641843;86;25632;-59
2022/06/28 08:23:51;;;;;;;9.90;8.90;;;;;;;32.30;45.94;98773.86;1636775;86;25792;-59
2022/06/28 08:26:17;;;;;;;9.28;8.25;;;;;;;32.45;43.87;98781.21;1643152;87;25760;-59
2022/06/28 08:28:44;;;;;;;8.98;8.05;;;;;;;32.25;45.05;98787.20;1641815;87;29579;-59
2022/06/28 08:31:09;;;;;;;8.80;8.00;;;;;;;32.21;45.09;98787.97;1641220;87;25757;-59
2022/06/28 08:33:35;;;;;;;8.20;7.40;;;;;;;32.05;45.50;98787.69;1641642;87;25751;-59
2022/06/28 08:36:03;;;;;;;8.53;7.72;;;;;;;32.12;45.42;98792.30;1692006;84;25790;-59
2022/06/28 08:38:29;;;;;;;9.15;8.20;;;;;;;32.09;45.03;98791.80;1670944;85;25905;-59
2022/06/28 08:40:57;;;;;;;9.78;8.13;;;;;;;32.07;46.07;98797.77;1670828;85;27399;-59
2022/06/28 08:43:24;;;;;;;11.63;8.38;;;;;;;31.96;46.80;98800.36;1631047;86;25748;-58
2022/06/28 08:45:51;;;;;;;11.85;8.20;;;;;;;31.79;46.63;98804.75;1669089;85;25789;-59
2022/06/28 08:48:40;;;;;;;9.35;8.40;;;;;;;31.65;46.56;98813.09;1670118;85;27072;-59
2022/06/28 08:51:10;;;;;;;10.82;9.10;;;;;;;31.54;46.64;98824.78;1669918;85;25770;-59
2022/06/28 08:53:39;;;;;;;9.70;8.70;;;;;;;31.35;46.83;98837.91;1669786;85;27417;-59
2022/06/28 08:56:09;;;;;;;19.55;9.38;;;;;;;31.00;47.10;98849.09;1671906;84;25745;-59
2022/06/28 08:58:37;;;;;;;10.48;8.23;;;;;;;30.65;47.14;98856.09;1674427;84;25719;-59
2022/06/28 09:01:04;;;;;;;9.68;8.28;;;;;;;30.29;47.70;98866.98;1674145;85;25751;-59
2022/06/28 09:03:32;;;;;;;13.20;9.13;;;;;;;29.99;48.71;98863.30;1674865;85;25688;-59
2022/06/28 09:05:59;;;;;;;12.70;9.50;;;;;;;29.67;49.25;98869.30;1675347;85;27408;-59
2022/06/28 09:08:25;;;;;;;11.33;9.05;;;;;;;29.39;49.70;98882.81;1674796;85;25734;-59
2022/06/28 09:10:52;;;;;;;14.65;9.33;;;;;;;29.06;52.56;98881.33;1649680;85;25553;-59
2022/06/28 09:13:21;;;;;;;13.78;9.90;;;;;;;28.60;53.50;98889.46;1672217;84;27897;-58
2022/06/28 09:15:52;;;;;;;10.85;9.00;;;;;;;28.13;55.66;98897.53;1671244;85;25731;-58
2022/06/28 09:18:23;;;;;;;14.83;8.93;;;;;;;27.67;56.08;98900.68;1670218;84;27567;-59
2022/06/28 09:20:57;;;;;;;18.98;9.98;;;;;;;27.35;59.85;98899.70;1668829;85;25851;-58
2022/06/28 09:23:28;;;;;;;12.85;9.25;;;;;;;27.00;59.60;98911.00;1669469;85;25714;-59
2022/06/28 09:26:00;;;;;;;11.28;9.18;;;;;;;26.72;60.21;98912.89;1676803;84;25763;-59
2022/06/28 09:28:30;;;;;;;14.65;10.28;;;;;;;26.51;61.94;98914.72;1682801;84;44427;-59
2022/06/28 09:31:21;;;;;;;17.32;10.60;;;;;;;26.29;62.82;98919.10;1683273;85;27474;-58
2022/06/28 09:34:07;;;;;;;10.55;8.93;;;;;;;26.05;63.45;98923.12;1665136;85;25732;-59
2022/06/28 09:36:41;;;;;;;10.75;9.30;;;;;;;25.77;66.58;98920.72;1662096;85;25692;-60
2022/06/28 09:39:17;;;;;;;11.95;10.23;;;;;;;25.43;67.46;98920.09;1645750;87;25928;-59
2022/06/28 09:41:48;;;;;;;11.93;9.63;;;;;;;25.23;68.05;98931.61;1646359;87;25667;-59
2022/06/28 09:44:18;;;;;;;12.65;11.22;;;;;;;25.03;69.47;98938.50;1646358;87;27589;-60
2022/06/28 09:46:46;;;;;;;13.55;10.23;;;;;;;24.76;71.95;98953.56;1646423;87;25536;-60
2022/06/28 09:49:14;;;;;;;9.80;8.38;;;;;;;24.56;71.49;98955.41;1646264;87;25519;-61
2022/06/28 09:51:42;;;;;;;10.10;8.33;;;;;;;24.34;72.28;98961.61;1646130;87;25821;-60
2022/06/28 09:54:10;;;;;;;7.50;6.70;;;;;;;24.09;73.23;98966.59;1646345;87;26006;-61
2022/06/28 09:56:44;;;;;;;7.00;4.17;;;;;;;23.92;73.87;98971.16;1645986;87;27496;-60
2022/06/28 09:59:11;;;;;;;3.45;2.80;;;;;;;23.83;73.32;98974.94;1646219;87;25692;-61
2022/06/28 10:01:39;;;;;;;2.55;2.12;;;;;;;23.58;74.48;98980.48;1645958;87;25475;-60
2022/06/28 10:04:07;;;;;;;2.12;1.90;;;;;;;23.37;74.57;98977.79;1646061;87;25755;-61
2022/06/28 10:06:34;;;;;;;2.20;2.00;;;;;;;23.18;74.56;98986.10;1645978;87;25685;-60
2022/06/28 10:09:05;;;;;;;3.25;2.02;;;;;;;23.08;76.78;98991.63;1646224;87;27410;-60
2022/06/28 10:15:01;;;;;;;;;;;;;;;22.94;76.03;98983.35;1648875;87;25540;-61
2022/06/28 10:17:04;;;;;;;2.15;1.95;;;;;;;22.71;77.26;98978.03;1645885;87;25722;-60
2022/06/28 10:19:34;;;;;;;2.75;2.05;;;;;;;22.61;76.77;98971.17;1645827;87;25696;-60
2022/06/28 10:22:13;;;;;;;3.08;1.90;;;;;;;22.52;76.79;98982.66;1646290;87;27518;-61
2022/06/28 10:24:56;;;;;;;2.77;2.17;;;;;;;22.48;77.25;98977.65;1646210;87;25683;-60
2022/06/28 10:27:24;;;;;;;3.60;2.37;;;;;;;22.41;77.46;98980.59;1646353;87;25819;-61
2022/06/28 10:30:08;;;;;;;3.08;2.40;;;;;;;22.36;77.68;98978.14;1645833;87;25762;-60
2022/06/28 10:32:52;;;;;;;4.37;2.83;;;;;;;22.31;78.42;98977.91;1645683;87;25880;-60
2022/06/28 10:35:42;;;;;;;3.58;3.27;;;;;;;22.32;77.83;98970.34;1646163;87;27980;-60
2022/06/28 10:38:14;;;;;;;4.22;3.37;;;;;;;22.31;78.56;98967.35;1646212;87;25671;-60
2022/06/28 10:40:49;;;;;;;3.98;3.40;;;;;;;22.34;79.07;98967.98;1646236;87;25892;-60
2022/06/28 10:43:39;;;;;;;5.03;3.55;;;;;;;22.33;78.43;98975.34;1646141;87;26141;-60
2022/06/28 10:46:10;;;;;;;4.37;3.92;;;;;;;22.29;79.08;98973.91;1619869;87;25683;-61
2022/06/28 10:48:54;;;;;;;3.98;3.67;;;;;;;22.26;79.27;98971.88;1646367;87;27415;-61
2022/06/28 10:51:21;;;;;;;5.65;4.12;;;;;;;22.21;80.36;98966.06;1646271;87;25723;-60
2022/06/28 10:54:08;;;;;;;5.10;3.92;;;;;;;22.22;80.14;98962.69;1645595;87;26580;-60
2022/06/28 10:56:44;;;;;;;4.33;3.92;;;;;;;22.28;79.69;98959.14;1646190;87;25734;-61
2022/06/28 10:59:16;;;;;;;4.42;3.98;;;;;;;22.19;80.05;98968.42;1646221;87;25684;-60
2022/06/28 11:01:50;;;;;;;4.78;4.37;;;;;;;22.21;80.30;98980.02;1646245;87;27402;-59
2022/06/28 11:04:24;;;;;;;4.42;4.00;;;;;;;22.20;80.54;98992.38;1646252;87;25503;-59
2022/06/28 11:07:21;;;;;;;4.37;3.98;;;;;;;22.11;80.92;98988.52;1646161;87;25684;-59
2022/06/28 11:10:07;;;;;;;5.40;3.50;;;;;;;21.97;80.58;98982.20;1646136;87;25740;-59
2022/06/28 11:12:38;;;;;;;4.12;2.67;;;;;;;21.81;80.81;98989.40;1619567;87;25552;-59
2022/06/28 11:15:28;;;;;;;2.70;2.20;;;;;;;21.62;79.71;98993.16;1645889;87;27461;-59
2022/06/28 11:17:55;;;;;;;2.92;2.50;;;;;;;21.51;79.49;98993.03;1645861;87;25700;-59
2022/06/28 11:20:28;;;;;;;3.77;2.45;;;;;;;21.50;80.13;98995.61;1646180;87;25499;-60
2022/06/28 11:22:54;;;;;;;3.70;2.42;;;;;;;21.43;80.00;98992.95;1646097;87;26387;-59
2022/06/28 11:25:23;;;;;;;2.62;2.40;;;;;;;21.42;80.39;98990.55;1646349;87;25503;-60
2022/06/28 11:27:56;;;;;;;4.75;2.95;;;;;;;21.43;80.50;98979.02;1646388;87;27411;-59
2022/06/28 11:30:27;;;;;;;4.10;2.80;;;;;;;21.44;80.28;98971.43;1639566;87;25765;-59
2022/06/28 11:32:57;;;;;;;3.67;2.60;;;;;;;21.47;81.83;98963.70;1639401;87;25517;-59
2022/06/28 11:35:30;;;;;;;3.98;2.87;;;;;;;21.47;80.93;98954.55;1639323;87;26332;-59
2022/06/28 11:38:06;;;;;;;5.17;3.02;;;;;;;21.54;80.43;98953.23;1639395;87;25507;-59
2022/06/28 11:40:51;;;;;;;4.08;2.70;;;;;;;21.60;79.96;98963.45;1637789;87;25708;-59
2022/06/28 11:43:26;;;;;;;3.75;2.98;;;;;;;21.55;80.41;98965.41;1667250;86;25702;-59
2022/06/28 11:45:55;;;;;;;3.40;3.10;;;;;;;21.52;80.83;98961.17;1664922;86;25520;-59